KMDT

Harrisburg International Airport

Harrisburg, Pennsylvania, USA
METAR KMDT 201556Z 00000KT 10SM OVC023 23/18 A3014 RMK AO2 SLP204 T02280178
Observed Flight Rules
Aug-20 @ 15:56 UTC (28 minutes ago) Marginal Visual Flight Rules
Visibility Clouds
10 miles
  • Overcast at 2,300' AGL
Temperatures Readings
Current 23°C / 73°F
Dewpoint 18°C / 64°F
Humidity 74%
Altimeter 30.14" Hg
Pressure 1020.4 hPa
Elevation 95
METAR KMDT 201556Z 00000KT 10SM OVC023 23/18 A3014 RMK AO2 SLP204 T02280178
Observed Flight Rules
Aug-20 @ 15:56 UTC
(28 minutes ago)
MVFR
Clouds
  • Overcast at 2,300' AGL
Temperature Dewpoint
23°C / 73°F 18°C / 64°F
Humidity Altimeter Pressure
74% 30.14" Hg 1020.4 hPa